createdAt,value
2023-04-17T00:00:05.951Z,998.89
2023-04-17T00:01:05.910Z,998.84
2023-04-17T00:02:05.966Z,998.92
2023-04-17T00:03:06.095Z,998.85
2023-04-17T00:04:06.115Z,998.93
2023-04-17T00:05:06.046Z,998.97
2023-04-17T00:06:05.915Z,998.94
2023-04-17T00:07:05.931Z,999.03
2023-04-17T00:08:05.933Z,998.93
2023-04-17T00:09:05.951Z,998.93
2023-04-17T00:10:05.955Z,998.97
2023-04-17T00:11:08.308Z,998.91
2023-04-17T00:12:05.971Z,998.91
2023-04-17T00:13:05.918Z,998.92
2023-04-17T00:14:05.939Z,998.96
2023-04-17T00:15:05.931Z,998.92
2023-04-17T00:16:05.955Z,998.91
2023-04-17T00:17:05.972Z,999.04
2023-04-17T00:18:05.944Z,998.78
2023-04-17T00:19:05.948Z,998.87
2023-04-17T00:20:05.953Z,998.92
2023-04-17T00:21:05.949Z,998.90
2023-04-17T00:22:05.939Z,998.87
2023-04-17T00:23:05.983Z,998.91
2023-04-17T00:24:05.960Z,998.89
2023-04-17T00:25:05.959Z,998.89
2023-04-17T00:26:05.942Z,998.86
2023-04-17T00:27:05.987Z,998.85
2023-04-17T00:28:05.952Z,998.80
2023-04-17T00:29:05.989Z,998.90
2023-04-17T00:30:05.980Z,998.85
2023-04-17T00:31:05.977Z,998.82
2023-04-17T00:32:05.996Z,998.79
2023-04-17T00:33:06.017Z,998.74
2023-04-17T00:34:05.996Z,998.81
2023-04-17T00:35:05.995Z,998.82
2023-04-17T00:36:05.955Z,998.83
2023-04-17T00:37:05.941Z,998.82
2023-04-17T00:38:05.977Z,998.80
2023-04-17T00:39:05.982Z,998.76
2023-04-17T00:40:05.994Z,998.80
2023-04-17T00:41:06.004Z,998.75
2023-04-17T00:42:05.980Z,998.82
2023-04-17T00:43:05.971Z,998.78
2023-04-17T00:44:05.955Z,998.79
2023-04-17T00:45:05.974Z,998.78
2023-04-17T00:46:06.040Z,998.77
2023-04-17T00:47:06.008Z,998.77
2023-04-17T00:48:06.004Z,998.76
2023-04-17T00:49:06.023Z,998.79
2023-04-17T00:50:06.007Z,998.73
2023-04-17T00:51:05.999Z,998.82
2023-04-17T00:52:06.030Z,998.78
2023-04-17T00:53:06.033Z,998.72
2023-04-17T00:54:05.989Z,998.79
2023-04-17T00:55:05.978Z,998.59
2023-04-17T00:56:06.017Z,998.73
2023-04-17T00:57:05.991Z,998.76
2023-04-17T00:58:06.000Z,998.71
2023-04-17T00:59:05.987Z,998.78
2023-04-17T01:00:06.031Z,998.71
2023-04-17T01:01:06.050Z,998.71
2023-04-17T01:02:06.067Z,998.65
2023-04-17T01:03:06.258Z,998.73
2023-04-17T01:04:06.121Z,998.77
2023-04-17T01:05:05.999Z,998.70
2023-04-17T01:06:06.330Z,998.77
2023-04-17T01:07:06.024Z,998.72
2023-04-17T01:08:06.028Z,998.69
2023-04-17T01:09:06.021Z,998.69
2023-04-17T01:10:06.003Z,998.66
2023-04-17T01:11:05.998Z,998.74
2023-04-17T01:12:06.014Z,998.73
2023-04-17T01:13:05.992Z,998.70
2023-04-17T01:14:06.063Z,998.71
2023-04-17T01:15:06.012Z,998.74
2023-04-17T01:16:06.021Z,998.69
2023-04-17T01:17:06.099Z,998.73
2023-04-17T01:18:06.017Z,998.68
2023-04-17T01:19:06.040Z,998.74
2023-04-17T01:20:06.023Z,998.74
2023-04-17T01:21:06.007Z,998.71
2023-04-17T01:22:06.019Z,998.76
2023-04-17T01:23:06.027Z,998.73
2023-04-17T01:24:06.025Z,998.70
2023-04-17T01:25:07.870Z,998.68
2023-04-17T01:26:06.549Z,998.73
2023-04-17T01:27:06.208Z,998.71
2023-04-17T01:28:07.050Z,998.69
2023-04-17T01:29:07.090Z,998.71
2023-04-17T01:30:06.245Z,998.72
2023-04-17T01:31:06.080Z,998.75
2023-04-17T01:32:05.993Z,998.65
2023-04-17T01:33:06.066Z,998.69
2023-04-17T01:34:06.012Z,998.73
2023-04-17T01:35:06.034Z,998.72
2023-04-17T01:36:06.020Z,998.71
2023-04-17T01:37:06.039Z,998.70
2023-04-17T01:38:06.011Z,998.71
2023-04-17T01:39:06.011Z,998.78
2023-04-17T01:40:06.059Z,998.69
2023-04-17T01:41:06.042Z,998.74
2023-04-17T01:42:06.041Z,998.71
2023-04-17T01:43:06.022Z,998.82
2023-04-17T01:44:06.042Z,998.70
2023-04-17T01:45:06.058Z,998.75
2023-04-17T01:46:06.099Z,998.74
2023-04-17T01:47:06.063Z,998.69
2023-04-17T01:48:06.034Z,998.71
2023-04-17T01:49:06.050Z,998.73
2023-04-17T01:50:06.240Z,998.69
2023-04-17T01:51:06.047Z,998.73
2023-04-17T01:52:06.039Z,998.77
2023-04-17T01:53:06.052Z,998.72
2023-04-17T01:54:06.039Z,998.76
2023-04-17T01:55:06.049Z,998.71
2023-04-17T01:56:06.063Z,998.71
2023-04-17T01:57:06.063Z,998.73
2023-04-17T01:58:06.073Z,998.70
2023-04-17T01:59:06.077Z,998.66
2023-04-17T02:00:06.069Z,998.71
2023-04-17T02:01:06.115Z,998.72
2023-04-17T02:02:06.239Z,998.66
2023-04-17T02:03:06.211Z,998.60
2023-04-17T02:04:06.239Z,998.67
2023-04-17T02:05:06.071Z,998.64
2023-04-17T02:06:06.080Z,998.66
2023-04-17T02:07:06.079Z,998.71
2023-04-17T02:08:06.066Z,998.65
2023-04-17T02:09:06.081Z,998.71
2023-04-17T02:10:06.070Z,998.64
2023-04-17T02:11:06.114Z,998.71
2023-04-17T02:12:06.065Z,998.67
2023-04-17T02:13:06.085Z,998.62
2023-04-17T02:14:06.156Z,998.67
2023-04-17T02:15:06.090Z,998.59
2023-04-17T02:16:06.163Z,998.60
2023-04-17T02:17:06.090Z,998.61
2023-04-17T02:18:06.159Z,998.69
2023-04-17T02:19:06.078Z,998.64
2023-04-17T02:20:06.080Z,998.67
2023-04-17T02:21:06.104Z,998.69
2023-04-17T02:22:06.088Z,998.69
2023-04-17T02:23:06.107Z,998.61
2023-04-17T02:24:06.095Z,998.67
2023-04-17T02:25:06.078Z,998.61
2023-04-17T02:26:06.086Z,998.68
2023-04-17T02:27:06.113Z,998.64
2023-04-17T02:28:06.094Z,998.59
2023-04-17T02:29:06.156Z,998.58
2023-04-17T02:30:06.083Z,998.63
2023-04-17T02:31:06.145Z,998.62
2023-04-17T02:32:06.119Z,998.63
2023-04-17T02:33:06.190Z,998.64
2023-04-17T02:34:06.108Z,998.66
2023-04-17T02:35:06.255Z,998.66
2023-04-17T02:36:06.261Z,998.61
2023-04-17T02:37:06.256Z,998.64
2023-04-17T02:38:06.302Z,998.59
2023-04-17T02:39:06.285Z,998.62
2023-04-17T02:40:06.282Z,998.64
2023-04-17T02:41:06.273Z,998.69
2023-04-17T02:42:06.351Z,998.65
2023-04-17T02:43:06.308Z,998.62
2023-04-17T02:44:06.279Z,998.66
2023-04-17T02:45:06.369Z,998.62
2023-04-17T02:46:06.370Z,998.68
2023-04-17T02:47:06.376Z,998.60
2023-04-17T02:48:06.471Z,998.67
2023-04-17T02:49:06.387Z,998.66
2023-04-17T02:50:06.386Z,998.66
2023-04-17T02:51:06.386Z,998.66
2023-04-17T02:52:06.393Z,998.68
2023-04-17T02:53:06.399Z,998.66
2023-04-17T02:54:06.423Z,998.68
2023-04-17T02:55:06.387Z,998.67
2023-04-17T02:56:06.409Z,998.76
2023-04-17T02:57:06.409Z,998.74
2023-04-17T02:58:06.521Z,998.74
2023-04-17T02:59:06.575Z,998.70
2023-04-17T03:00:06.594Z,998.67
2023-04-17T03:01:06.643Z,998.65
2023-04-17T03:02:06.614Z,998.67
2023-04-17T03:03:06.745Z,998.76
2023-04-17T03:04:06.675Z,998.77
2023-04-17T03:05:06.628Z,998.71
2023-04-17T03:06:06.607Z,998.72
2023-04-17T03:07:06.636Z,998.65
2023-04-17T03:08:06.626Z,998.67
2023-04-17T03:09:06.668Z,998.70
2023-04-17T03:10:06.656Z,998.69
2023-04-17T03:11:06.677Z,998.67
2023-04-17T03:12:06.629Z,998.70
2023-04-17T03:13:06.664Z,998.70
2023-04-17T03:14:06.679Z,998.65
2023-04-17T03:15:08.721Z,998.66
2023-04-17T03:16:06.746Z,998.64
2023-04-17T03:17:06.671Z,998.65
2023-04-17T03:18:06.709Z,998.61
2023-04-17T03:19:06.696Z,998.62
2023-04-17T03:20:06.689Z,998.61
2023-04-17T03:21:06.721Z,998.55
2023-04-17T03:22:06.725Z,998.65
2023-04-17T03:23:06.731Z,998.63
2023-04-17T03:24:06.752Z,998.65
2023-04-17T03:25:06.760Z,998.66
2023-04-17T03:26:06.760Z,998.57
2023-04-17T03:27:06.801Z,998.62
2023-04-17T03:28:06.783Z,998.64
2023-04-17T03:29:06.814Z,998.67
2023-04-17T03:30:06.833Z,998.66
2023-04-17T03:31:06.887Z,998.67
2023-04-17T03:32:07.030Z,998.77
2023-04-17T03:33:06.947Z,998.66
2023-04-17T03:34:06.958Z,998.73
2023-04-17T03:35:06.947Z,998.69
2023-04-17T03:36:06.940Z,998.64
2023-04-17T03:37:06.908Z,998.70
2023-04-17T03:38:06.932Z,998.66
2023-04-17T03:39:06.947Z,998.72
2023-04-17T03:40:07.050Z,998.76
2023-04-17T03:41:07.035Z,998.75
2023-04-17T03:42:07.019Z,998.66
2023-04-17T03:43:07.032Z,998.68
2023-04-17T03:44:07.072Z,998.75
2023-04-17T03:45:07.068Z,998.69
2023-04-17T03:46:07.237Z,998.75
2023-04-17T03:47:07.114Z,998.70
2023-04-17T03:48:07.229Z,998.69
2023-04-17T03:49:07.141Z,998.65
2023-04-17T03:50:07.488Z,998.73
2023-04-17T03:51:07.178Z,998.78
2023-04-17T03:52:07.185Z,998.70
2023-04-17T03:53:07.158Z,998.74
2023-04-17T03:54:07.196Z,998.80
2023-04-17T03:55:07.205Z,998.78
2023-04-17T03:56:07.213Z,998.78
2023-04-17T03:57:07.200Z,998.80
2023-04-17T03:58:07.213Z,998.77
2023-04-17T03:59:07.330Z,998.83
2023-04-17T04:00:07.349Z,998.84
2023-04-17T04:01:07.371Z,998.81
2023-04-17T04:02:07.459Z,998.82
2023-04-17T04:03:07.577Z,998.82
2023-04-17T04:04:07.626Z,998.79
2023-04-17T04:05:07.445Z,998.79
2023-04-17T04:06:07.389Z,998.84
2023-04-17T04:07:07.376Z,998.82
2023-04-17T04:08:07.348Z,998.86
2023-04-17T04:09:07.380Z,998.84
2023-04-17T04:10:07.356Z,998.86
2023-04-17T04:11:07.335Z,998.82
2023-04-17T04:12:07.391Z,998.82
2023-04-17T04:13:07.430Z,998.82
2023-04-17T04:14:07.411Z,998.79
2023-04-17T04:15:07.401Z,998.88
2023-04-17T04:16:07.454Z,998.87
2023-04-17T04:17:07.456Z,998.79
2023-04-17T04:18:07.545Z,998.76
2023-04-17T04:19:07.466Z,998.81
2023-04-17T04:20:07.463Z,998.81
2023-04-17T04:21:07.497Z,998.77
2023-04-17T04:22:07.486Z,998.83
2023-04-17T04:23:07.485Z,998.78
2023-04-17T04:24:07.469Z,998.90
2023-04-17T04:25:07.490Z,998.90
2023-04-17T04:26:07.484Z,998.85
2023-04-17T04:27:07.524Z,998.82
2023-04-17T04:28:07.482Z,998.88
2023-04-17T04:29:07.527Z,998.92
2023-04-17T04:30:07.525Z,998.81
2023-04-17T04:31:07.546Z,998.91
2023-04-17T04:32:07.653Z,998.84
2023-04-17T04:33:07.677Z,998.88
2023-04-17T04:34:07.661Z,998.87
2023-04-17T04:35:07.685Z,998.94
2023-04-17T04:36:07.659Z,998.88
2023-04-17T04:37:07.665Z,998.88
2023-04-17T04:38:08.598Z,998.94
2023-04-17T04:39:07.672Z,998.94
2023-04-17T04:40:07.657Z,998.93
2023-04-17T04:41:07.659Z,998.90
2023-04-17T04:42:07.675Z,998.88
2023-04-17T04:43:07.697Z,998.93
2023-04-17T04:44:07.666Z,998.95
2023-04-17T04:45:07.689Z,998.91
2023-04-17T04:46:07.677Z,998.86
2023-04-17T04:47:07.689Z,998.95
2023-04-17T04:48:07.744Z,998.84
2023-04-17T04:49:07.687Z,998.87
2023-04-17T04:50:07.688Z,998.90
2023-04-17T04:51:07.677Z,998.95
2023-04-17T04:52:07.682Z,998.94
2023-04-17T04:53:07.686Z,998.88
2023-04-17T04:54:07.724Z,999.00
2023-04-17T04:55:07.669Z,998.96
2023-04-17T04:56:07.705Z,998.93
2023-04-17T04:57:07.685Z,998.87
2023-04-17T04:58:07.703Z,998.93
2023-04-17T04:59:07.703Z,999.00
2023-04-17T05:00:07.665Z,998.94
2023-04-17T05:01:07.810Z,998.91
2023-04-17T05:02:07.741Z,998.96
2023-04-17T05:03:07.831Z,998.99
2023-04-17T05:04:07.907Z,998.97
2023-04-17T05:05:07.745Z,998.97
2023-04-17T05:06:07.703Z,998.95
2023-04-17T05:07:07.712Z,998.94
2023-04-17T05:08:07.698Z,999.02
2023-04-17T05:09:07.716Z,999.07
2023-04-17T05:10:07.712Z,999.04
2023-04-17T05:11:07.709Z,999.07
2023-04-17T05:12:07.696Z,998.93
2023-04-17T05:13:07.706Z,999.00
2023-04-17T05:14:07.705Z,999.04
2023-04-17T05:15:07.729Z,999.07
2023-04-17T05:16:07.733Z,999.01
2023-04-17T05:17:07.732Z,999.02
2023-04-17T05:18:07.738Z,999.09
2023-04-17T05:19:07.727Z,999.05
2023-04-17T05:20:07.764Z,999.04
2023-04-17T05:21:07.722Z,999.00
2023-04-17T05:22:07.745Z,999.10
2023-04-17T05:23:07.718Z,998.97
2023-04-17T05:24:07.735Z,999.07
2023-04-17T05:25:07.721Z,999.13
2023-04-17T05:26:07.722Z,999.03
2023-04-17T05:27:07.710Z,999.07
2023-04-17T05:28:07.724Z,999.05
2023-04-17T05:29:07.763Z,999.05
2023-04-17T05:30:07.757Z,999.05
2023-04-17T05:31:07.790Z,999.02
2023-04-17T05:32:07.925Z,999.07
2023-04-17T05:33:07.746Z,999.12
2023-04-17T05:34:07.739Z,999.06
2023-04-17T05:35:07.781Z,999.17
2023-04-17T05:36:07.765Z,999.12
2023-04-17T05:37:07.740Z,999.12
2023-04-17T05:38:07.723Z,999.13
2023-04-17T05:39:07.732Z,999.20
2023-04-17T05:40:07.757Z,999.18
2023-04-17T05:41:07.756Z,999.13
2023-04-17T05:42:07.735Z,999.18
2023-04-17T05:43:07.760Z,999.14
2023-04-17T05:44:07.759Z,999.21
2023-04-17T05:45:07.755Z,999.15
2023-04-17T05:46:07.881Z,999.15
2023-04-17T05:47:07.742Z,999.21
2023-04-17T05:48:07.740Z,999.10
2023-04-17T05:49:07.762Z,999.12
2023-04-17T05:50:07.738Z,999.16
2023-04-17T05:51:07.752Z,999.19
2023-04-17T05:52:07.757Z,999.18
2023-04-17T05:53:07.753Z,999.15
2023-04-17T05:54:07.748Z,999.05
2023-04-17T05:55:07.723Z,999.01
2023-04-17T05:56:07.781Z,999.02
2023-04-17T05:57:07.788Z,999.06
2023-04-17T05:58:22.150Z,999.04
2023-04-17T05:59:07.767Z,999.03
2023-04-17T06:00:07.788Z,999.10
2023-04-17T06:01:07.790Z,998.95
2023-04-17T06:02:07.869Z,999.05
2023-04-17T06:03:08.024Z,998.99
2023-04-17T06:04:07.898Z,998.94
2023-04-17T06:05:07.991Z,999.00
2023-04-17T06:06:07.820Z,999.06
2023-04-17T06:07:07.800Z,999.11
2023-04-17T06:08:07.763Z,999.06
2023-04-17T06:09:07.768Z,999.04
2023-04-17T06:10:07.754Z,999.02
2023-04-17T06:11:07.759Z,999.10
2023-04-17T06:12:07.778Z,999.05
2023-04-17T06:13:07.767Z,999.08
2023-04-17T06:14:07.778Z,999.01
2023-04-17T06:15:08.952Z,999.06
2023-04-17T06:16:07.757Z,999.01
2023-04-17T06:17:07.845Z,999.04
2023-04-17T06:18:07.946Z,999.07
2023-04-17T06:19:07.773Z,999.07
2023-04-17T06:20:07.821Z,999.11
2023-04-17T06:21:07.768Z,999.15
2023-04-17T06:22:07.804Z,999.10
2023-04-17T06:23:07.794Z,999.24
2023-04-17T06:24:07.786Z,999.22
2023-04-17T06:25:07.782Z,999.23
2023-04-17T06:26:07.784Z,999.20
2023-04-17T06:27:07.792Z,999.18
2023-04-17T06:28:07.788Z,999.16
2023-04-17T06:29:07.794Z,999.19
2023-04-17T06:30:07.801Z,999.28
2023-04-17T06:31:07.826Z,999.26
2023-04-17T06:32:07.788Z,999.29
2023-04-17T06:33:07.974Z,999.27
2023-04-17T06:34:07.805Z,999.27
2023-04-17T06:35:07.780Z,999.30
2023-04-17T06:36:07.794Z,999.28
2023-04-17T06:37:07.829Z,999.34
2023-04-17T06:38:07.832Z,999.33
2023-04-17T06:39:07.827Z,999.36
2023-04-17T06:40:07.800Z,999.24
2023-04-17T06:41:07.828Z,999.30
2023-04-17T06:42:07.800Z,999.30
2023-04-17T06:43:07.810Z,999.36
2023-04-17T06:44:07.812Z,999.38
2023-04-17T06:45:07.830Z,999.39
2023-04-17T06:46:07.821Z,999.34
2023-04-17T06:47:07.817Z,999.39
2023-04-17T06:48:07.844Z,999.45
2023-04-17T06:49:07.809Z,999.37
2023-04-17T06:50:07.847Z,999.38
2023-04-17T06:51:07.807Z,999.41
2023-04-17T06:52:07.805Z,999.43
2023-04-17T06:53:07.828Z,999.41
2023-04-17T06:54:07.850Z,999.42
2023-04-17T06:55:07.810Z,999.52
2023-04-17T06:56:07.802Z,999.49
2023-04-17T06:57:07.824Z,999.49
2023-04-17T06:58:07.899Z,999.47
2023-04-17T06:59:07.860Z,999.54
2023-04-17T07:00:07.808Z,999.50
2023-04-17T07:01:07.818Z,999.52
2023-04-17T07:02:07.895Z,999.47
2023-04-17T07:03:07.952Z,999.61
2023-04-17T07:04:07.903Z,999.60
2023-04-17T07:05:07.810Z,999.53
2023-04-17T07:06:07.810Z,999.55
2023-04-17T07:07:07.832Z,999.57
2023-04-17T07:08:07.876Z,999.55
2023-04-17T07:09:07.857Z,999.56
2023-04-17T07:10:07.835Z,999.53
2023-04-17T07:11:07.826Z,999.56
2023-04-17T07:12:07.863Z,999.53
2023-04-17T07:13:07.840Z,999.54
2023-04-17T07:14:07.857Z,999.56
2023-04-17T07:15:07.902Z,999.61
2023-04-17T07:16:07.908Z,999.67
2023-04-17T07:17:07.822Z,999.62
2023-04-17T07:18:07.862Z,999.56
2023-04-17T07:19:07.932Z,999.63
2023-04-17T07:20:07.824Z,999.58
2023-04-17T07:21:07.840Z,999.65
2023-04-17T07:22:07.835Z,999.67
2023-04-17T07:23:07.821Z,999.63
2023-04-17T07:24:07.835Z,999.65
2023-04-17T07:25:07.856Z,999.71
2023-04-17T07:26:10.852Z,999.71
2023-04-17T07:27:07.851Z,999.70
2023-04-17T07:28:07.864Z,999.70
2023-04-17T07:29:07.892Z,999.71
2023-04-17T07:31:10.616Z,0.00
2023-04-17T07:32:10.392Z,0.00
2023-04-17T07:33:10.441Z,0.00
2023-04-17T07:34:10.381Z,0.00
2023-04-17T07:35:10.392Z,0.00
2023-04-17T07:36:10.365Z,0.00
2023-04-17T07:37:10.376Z,0.00
2023-04-17T07:38:10.378Z,0.00
2023-04-17T07:39:10.506Z,0.00
2023-04-17T07:40:10.394Z,0.00
2023-04-17T07:41:10.390Z,0.00
2023-04-17T07:42:10.385Z,0.00
2023-04-17T07:43:10.404Z,0.00
2023-04-17T07:44:10.419Z,0.00
2023-04-17T07:45:10.392Z,0.00
2023-04-17T07:46:10.405Z,0.00
2023-04-17T07:47:10.502Z,0.00
2023-04-17T07:48:10.436Z,0.00
2023-04-17T07:49:12.054Z,0.00
2023-04-17T07:50:10.413Z,0.00
2023-04-17T07:51:10.397Z,0.00
2023-04-17T07:52:10.406Z,0.00
2023-04-17T07:53:10.435Z,0.00
2023-04-17T07:54:10.388Z,0.00
2023-04-17T07:55:10.412Z,0.00
2023-04-17T07:56:12.242Z,0.00
2023-04-17T07:57:10.398Z,0.00
2023-04-17T07:58:10.401Z,0.00
2023-04-17T07:59:10.600Z,0.00
2023-04-17T08:00:10.406Z,0.00
2023-04-17T08:01:10.415Z,0.00
2023-04-17T08:02:10.480Z,0.00
2023-04-17T08:03:10.599Z,0.00
2023-04-17T08:04:10.626Z,0.00
2023-04-17T08:05:10.441Z,0.00
2023-04-17T08:06:10.429Z,0.00
2023-04-17T08:07:10.587Z,0.00
2023-04-17T08:08:10.554Z,0.00
2023-04-17T08:09:10.725Z,0.00
2023-04-17T08:10:10.625Z,0.00
2023-04-17T08:11:10.635Z,0.00
2023-04-17T08:12:10.604Z,0.00
2023-04-17T08:13:10.613Z,0.00
2023-04-17T08:14:10.751Z,0.00
2023-04-17T08:15:10.723Z,0.00
2023-04-17T08:16:10.724Z,0.00
2023-04-17T08:17:10.781Z,0.00
2023-04-17T08:18:10.756Z,0.00
2023-04-17T08:19:10.972Z,0.00
2023-04-17T08:20:10.726Z,0.00
2023-04-17T08:21:10.739Z,0.00
2023-04-17T08:22:10.715Z,0.00
2023-04-17T08:23:10.727Z,0.00
2023-04-17T08:24:10.725Z,0.00
2023-04-17T08:25:10.735Z,0.00
2023-04-17T08:26:10.734Z,0.00
2023-04-17T08:27:10.796Z,0.00
2023-04-17T08:28:10.795Z,0.00
2023-04-17T08:29:11.069Z,0.00
2023-04-17T08:30:13.337Z,0.00
2023-04-17T08:31:10.819Z,0.00
2023-04-17T08:32:15.056Z,0.00
2023-04-17T08:33:10.808Z,0.00
2023-04-17T08:34:14.886Z,0.00
2023-04-17T08:35:10.801Z,0.00
2023-04-17T08:36:10.946Z,0.00
2023-04-17T08:37:10.828Z,0.00
2023-04-17T08:38:10.806Z,0.00
2023-04-17T08:39:11.118Z,0.00
2023-04-17T08:40:10.819Z,0.00
2023-04-17T08:41:10.793Z,0.00
2023-04-17T08:42:14.788Z,0.00
2023-04-17T08:43:10.877Z,0.00
2023-04-17T08:44:10.819Z,0.00
2023-04-17T08:45:10.843Z,0.00
2023-04-17T08:46:10.913Z,0.00
2023-04-17T08:47:10.840Z,0.00
2023-04-17T08:48:10.803Z,0.00
2023-04-17T08:49:11.080Z,0.00
2023-04-17T08:50:10.884Z,0.00
2023-04-17T08:51:10.835Z,0.00
2023-04-17T08:52:10.813Z,0.00
2023-04-17T08:53:10.848Z,0.00
2023-04-17T08:54:10.851Z,0.00
2023-04-17T08:55:10.824Z,0.00
2023-04-17T08:56:10.826Z,0.00
2023-04-17T08:57:10.863Z,0.00
2023-04-17T08:58:10.835Z,0.00
2023-04-17T08:59:11.066Z,0.00
2023-04-17T09:00:10.848Z,0.00
2023-04-17T09:01:10.904Z,0.00
2023-04-17T09:02:11.026Z,0.00
2023-04-17T09:03:11.093Z,0.00
2023-04-17T09:04:11.030Z,0.00
2023-04-17T09:05:10.928Z,0.00
2023-04-17T09:06:10.924Z,0.00
2023-04-17T09:07:10.938Z,0.00
2023-04-17T09:08:10.941Z,0.00
2023-04-17T09:09:11.186Z,0.00
2023-04-17T09:10:10.904Z,0.00
2023-04-17T09:11:10.929Z,0.00
2023-04-17T09:12:10.930Z,0.00
2023-04-17T09:13:10.897Z,0.00
2023-04-17T09:14:10.953Z,0.00
2023-04-17T09:15:10.974Z,0.00
2023-04-17T09:16:11.074Z,0.00
2023-04-17T09:17:10.989Z,0.00
2023-04-17T09:18:11.030Z,0.00
2023-04-17T09:19:11.195Z,0.00
2023-04-17T09:20:11.012Z,0.00
2023-04-17T09:21:11.011Z,0.00
2023-04-17T09:22:11.169Z,0.00
2023-04-17T09:23:11.135Z,0.00
2023-04-17T09:24:11.141Z,0.00
2023-04-17T09:25:11.175Z,0.00
2023-04-17T09:26:11.144Z,0.00
2023-04-17T09:27:11.126Z,0.00
2023-04-17T09:28:11.131Z,0.00
2023-04-17T09:29:11.533Z,0.00
2023-04-17T09:30:11.173Z,0.00
2023-04-17T09:31:12.447Z,0.00
2023-04-17T09:32:11.545Z,0.00
2023-04-17T09:33:11.287Z,0.00
2023-04-17T09:34:11.258Z,0.00
2023-04-17T09:35:11.252Z,0.00
2023-04-17T09:36:11.260Z,0.00
2023-04-17T09:37:11.255Z,0.00
2023-04-17T09:38:11.271Z,0.00
2023-04-17T09:39:11.615Z,0.00
2023-04-17T09:40:11.272Z,0.00
2023-04-17T09:41:11.281Z,0.00
2023-04-17T09:42:11.285Z,0.00
2023-04-17T09:43:11.307Z,0.00
2023-04-17T09:44:11.502Z,0.00
2023-04-17T09:45:11.407Z,0.00
2023-04-17T09:46:11.379Z,0.00
2023-04-17T09:47:11.432Z,0.00
2023-04-17T09:48:11.473Z,0.00
2023-04-17T09:49:11.478Z,0.00
2023-04-17T09:50:11.500Z,0.00
2023-04-17T09:51:11.458Z,0.00
2023-04-17T09:52:11.459Z,0.00
2023-04-17T09:53:26.302Z,0.00
2023-04-17T09:54:12.069Z,0.00
2023-04-17T09:55:11.520Z,0.00
2023-04-17T09:56:11.519Z,0.00
2023-04-17T09:57:11.520Z,0.00
2023-04-17T09:58:11.516Z,0.00
2023-04-17T09:59:11.548Z,0.00
2023-04-17T10:00:11.544Z,0.00
2023-04-17T10:01:11.593Z,0.00
2023-04-17T10:02:11.670Z,0.00
2023-04-17T10:03:11.769Z,0.00
2023-04-17T10:04:12.039Z,0.00
2023-04-17T10:05:11.577Z,0.00
2023-04-17T10:06:11.547Z,0.00
2023-04-17T10:07:11.512Z,0.00
2023-04-17T10:08:11.521Z,0.00
2023-04-17T10:09:11.523Z,0.00
2023-04-17T10:10:11.552Z,0.00
2023-04-17T10:11:11.557Z,0.00
2023-04-17T10:12:11.546Z,0.00
2023-04-17T10:13:11.531Z,0.00
2023-04-17T10:14:11.996Z,0.00
2023-04-17T10:15:11.521Z,0.00
2023-04-17T10:16:11.579Z,0.00
2023-04-17T10:17:11.538Z,0.00
2023-04-17T10:18:11.564Z,0.00
2023-04-17T10:19:11.529Z,0.00
2023-04-17T10:20:11.529Z,0.00
2023-04-17T10:21:11.580Z,0.00
2023-04-17T10:22:11.569Z,0.00
2023-04-17T10:23:11.564Z,0.00
2023-04-17T10:24:11.684Z,0.00
2023-04-17T10:25:11.557Z,0.00
2023-04-17T10:26:11.581Z,0.00
2023-04-17T10:27:11.590Z,0.00
2023-04-17T10:28:11.557Z,0.00
2023-04-17T10:29:11.562Z,0.00
2023-04-17T10:30:11.558Z,0.00
2023-04-17T10:31:11.573Z,0.00
2023-04-17T10:32:11.636Z,0.00
2023-04-17T10:33:11.621Z,0.00
2023-04-17T10:34:11.753Z,0.00
2023-04-17T10:35:11.556Z,0.00
2023-04-17T10:36:11.549Z,0.00
2023-04-17T10:37:11.552Z,0.00
2023-04-17T10:38:11.589Z,0.00
2023-04-17T10:39:11.772Z,0.00
2023-04-17T10:40:12.481Z,0.00
2023-04-17T10:41:11.559Z,0.00
2023-04-17T10:42:11.571Z,0.00
2023-04-17T10:43:11.590Z,0.00
2023-04-17T10:44:11.575Z,0.00
2023-04-17T10:45:11.569Z,0.00
2023-04-17T10:46:11.653Z,0.00
2023-04-17T10:48:11.722Z,0.00
2023-04-17T10:49:11.830Z,0.00
2023-04-17T10:50:11.609Z,0.00
2023-04-17T10:51:11.576Z,0.00
2023-04-17T10:52:11.556Z,0.00
2023-04-17T10:53:12.533Z,0.00
2023-04-17T10:54:11.584Z,0.00
2023-04-17T10:55:11.582Z,0.00
2023-04-17T10:56:11.613Z,0.00
2023-04-17T10:57:11.602Z,0.00
2023-04-17T10:58:11.623Z,0.00
2023-04-17T10:59:12.038Z,0.00
2023-04-17T11:00:11.643Z,0.00
2023-04-17T11:01:11.609Z,0.00
2023-04-17T11:02:11.644Z,0.00
2023-04-17T11:03:11.689Z,0.00
2023-04-17T11:04:11.640Z,0.00
2023-04-17T11:05:11.656Z,0.00
2023-04-17T11:06:11.639Z,0.00
2023-04-17T11:07:11.606Z,0.00
2023-04-17T11:08:11.611Z,0.00
2023-04-17T11:09:12.050Z,0.00
2023-04-17T11:10:11.680Z,0.00
2023-04-17T11:11:11.682Z,0.00
2023-04-17T11:12:11.706Z,0.00
2023-04-17T11:13:11.705Z,0.00
2023-04-17T11:14:13.602Z,0.00
2023-04-17T11:15:11.711Z,0.00
2023-04-17T11:16:11.702Z,0.00
2023-04-17T11:17:11.783Z,0.00
2023-04-17T11:18:11.786Z,0.00
2023-04-17T11:19:11.994Z,0.00
2023-04-17T11:20:11.733Z,0.00
2023-04-17T11:21:11.743Z,0.00
2023-04-17T11:22:11.717Z,0.00
2023-04-17T11:23:11.748Z,0.00
2023-04-17T11:24:11.709Z,0.00
2023-04-17T11:25:11.727Z,0.00
2023-04-17T11:26:11.758Z,0.00
2023-04-17T11:27:11.742Z,0.00
2023-04-17T11:28:11.718Z,0.00
2023-04-17T11:29:11.941Z,0.00
2023-04-17T11:30:11.730Z,0.00
2023-04-17T11:31:11.763Z,0.00
2023-04-17T11:32:11.728Z,0.00
2023-04-17T11:33:11.729Z,0.00
2023-04-17T11:34:11.722Z,0.00
2023-04-17T11:35:11.759Z,0.00
2023-04-17T11:36:11.747Z,0.00
2023-04-17T11:37:11.733Z,0.00
2023-04-17T11:38:11.739Z,0.00
2023-04-17T11:39:11.959Z,0.00
2023-04-17T11:40:11.919Z,0.00
2023-04-17T11:41:11.745Z,0.00
2023-04-17T11:42:11.741Z,0.00
2023-04-17T11:43:11.799Z,0.00
2023-04-17T11:44:11.714Z,0.00
2023-04-17T11:45:11.809Z,0.00
2023-04-17T11:46:26.300Z,999.77
2023-04-17T11:47:26.313Z,999.71
2023-04-17T11:48:26.250Z,999.79
2023-04-17T11:49:26.309Z,999.76
2023-04-17T11:50:26.294Z,999.86
2023-04-17T11:51:26.306Z,999.82
2023-04-17T11:52:26.284Z,999.82
2023-04-17T11:53:26.321Z,999.85
2023-04-17T11:54:26.296Z,999.84
2023-04-17T11:55:26.289Z,999.88
2023-04-17T11:56:26.307Z,999.84
2023-04-17T11:57:26.276Z,999.90
2023-04-17T11:58:27.244Z,999.88
2023-04-17T11:59:26.278Z,999.90
2023-04-17T12:00:26.296Z,999.89
2023-04-17T12:01:26.281Z,999.86
2023-04-17T12:02:26.422Z,999.91
2023-04-17T12:03:26.535Z,1000.02
2023-04-17T12:04:26.416Z,999.94
2023-04-17T12:05:26.499Z,999.96
2023-04-17T12:06:26.306Z,999.95
2023-04-17T12:07:26.271Z,999.95
2023-04-17T12:08:26.312Z,999.90
2023-04-17T12:09:26.322Z,999.96
2023-04-17T12:10:26.320Z,999.88
2023-04-17T12:11:26.338Z,999.91
2023-04-17T12:12:26.315Z,999.99
2023-04-17T12:13:26.295Z,1573.19
2023-04-17T12:14:26.526Z,1000.00
2023-04-17T12:15:26.326Z,999.98
2023-04-17T12:16:26.325Z,1000.01
2023-04-17T12:17:26.371Z,999.99
2023-04-17T12:18:26.289Z,1000.00
2023-04-17T12:19:26.333Z,999.97
2023-04-17T12:20:26.978Z,1000.01
2023-04-17T12:21:26.287Z,1000.01
2023-04-17T12:22:26.354Z,999.93
2023-04-17T12:23:26.281Z,1000.02
2023-04-17T12:24:26.454Z,1000.00
2023-04-17T12:25:26.640Z,1000.02
2023-04-17T12:26:26.642Z,999.90
2023-04-17T12:27:26.649Z,999.93
2023-04-17T12:28:26.642Z,999.92
2023-04-17T12:29:40.515Z,999.98
2023-04-17T12:30:26.722Z,999.89
2023-04-17T12:31:26.708Z,1000.00
2023-04-17T12:32:26.713Z,999.95
2023-04-17T12:33:26.959Z,2020.85
2023-04-17T12:34:27.909Z,999.86
2023-04-17T12:35:26.970Z,999.88
2023-04-17T12:36:26.978Z,999.84
2023-04-17T12:37:26.952Z,999.88
2023-04-17T12:38:26.982Z,999.91
2023-04-17T12:39:27.013Z,999.90
2023-04-17T12:40:26.950Z,999.89
2023-04-17T12:41:26.969Z,999.81
2023-04-17T12:42:29.571Z,999.80
2023-04-17T12:43:26.999Z,999.78
2023-04-17T12:44:26.982Z,999.76
2023-04-17T12:45:27.018Z,999.82
2023-04-17T12:46:27.053Z,999.79